Time;durP1;ratioP1;P1;durP2;ratioP2;P2;SDS_P1;SDS_P2;PMS_P1;PMS_P2;Temp;Humidity;BMP_temperature;BMP_pressure;BME280_temperature;BME280_humidity;BME280_pressure;Samples;Min_cycle;Max_cycle;Signal;HPM_P1;HPM_P2
2021/08/02 00:01:30;;;;;;;14.60;10.70;;;24.80;69.20;;;;;;5056782;28;20095;-50
2021/08/02 00:04:06;;;;;;;15.88;9.65;;;24.80;69.30;;;;;;5056954;28;20120;-47
2021/08/02 00:06:52;;;;;;;17.05;10.00;;;24.80;69.30;;;;;;5056783;28;20028;-44
2021/08/02 00:09:30;;;;;;;16.10;9.43;;;24.80;69.30;;;;;;5056350;28;20033;-49
2021/08/02 00:12:00;;;;;;;15.70;10.43;;;24.80;69.50;;;;;;5056424;28;20067;-48
2021/08/02 00:14:26;;;;;;;;;;;24.80;69.70;;;;;;5057088;28;20364;-50
2021/08/02 00:16:52;;;;;;;14.10;10.02;;;24.70;69.40;;;;;;5056506;28;19954;-47
2021/08/02 00:19:19;;;;;;;17.00;10.45;;;24.70;69.80;;;;;;5056501;28;20321;-43
2021/08/02 00:21:45;;;;;;;14.85;10.05;;;24.70;70.00;;;;;;5056190;28;20025;-45
2021/08/02 00:24:11;;;;;;;15.50;10.02;;;24.60;70.10;;;;;;5056172;28;20040;-45
2021/08/02 00:26:39;;;;;;;16.13;10.02;;;24.60;70.20;;;;;;5056201;28;20033;-44
2021/08/02 00:29:06;;;;;;;13.80;9.30;;;24.60;70.30;;;;;;5056073;28;20033;-48
2021/08/02 00:31:32;;;;;;;13.13;9.85;;;24.60;70.30;;;;;;5056000;28;20063;-46
2021/08/02 00:33:58;;;;;;;12.88;9.73;;;24.60;70.40;;;;;;5056573;28;20037;-46
2021/08/02 00:36:40;;;;;;;12.95;9.88;;;24.60;70.50;;;;;;5055906;28;20337;-48
2021/08/02 00:39:22;;;;;;;14.43;10.18;;;24.60;71.10;;;;;;5055882;28;20060;-43
2021/08/02 00:42:09;;;;;;;10.93;9.65;;;24.60;70.70;;;;;;5056214;28;20067;-44
2021/08/02 00:44:58;;;;;;;12.05;9.90;;;24.60;70.80;;;;;;5056070;28;20469;-47
2021/08/02 00:47:28;;;;;;;13.77;10.27;;;24.50;70.70;;;;;;5055393;28;20068;-43
2021/08/02 00:49:56;;;;;;;15.50;10.15;;;24.50;70.80;;;;;;5055122;28;20044;-50
2021/08/02 00:52:26;;;;;;;14.15;10.27;;;24.50;70.90;;;;;;5055877;28;20043;-50
2021/08/02 00:54:57;;;;;;;14.88;10.07;;;24.50;70.90;;;;;;5055789;28;20059;-47
2021/08/02 00:57:24;;;;;;;14.77;10.95;;;24.40;70.90;;;;;;5055745;28;20037;-45
2021/08/02 00:59:56;;;;;;;12.32;9.77;;;24.40;71.10;;;;;;5055945;28;20367;-43
2021/08/02 01:02:25;;;;;;;12.13;10.65;;;24.40;71.10;;;;;;5056034;28;20036;-47
2021/08/02 01:04:53;;;;;;;14.23;11.02;;;24.40;71.30;;;;;;5055905;28;20116;-47
2021/08/02 01:07:21;;;;;;;13.30;10.23;;;24.40;71.40;;;;;;5055486;28;20074;-49
2021/08/02 01:09:47;;;;;;;14.77;10.18;;;24.30;71.40;;;;;;5055537;28;20111;-49
2021/08/02 01:12:14;;;;;;;14.02;11.18;;;24.30;71.50;;;;;;5055582;28;20033;-48
2021/08/02 01:14:41;;;;;;;13.82;10.73;;;24.30;71.80;;;;;;5055428;28;20074;-47
2021/08/02 01:17:08;;;;;;;14.23;10.90;;;24.30;71.80;;;;;;5055607;28;20290;-47
2021/08/02 01:19:36;;;;;;;15.25;11.32;;;24.20;72.00;;;;;;5055635;28;20108;-43
2021/08/02 01:22:03;;;;;;;15.65;10.85;;;24.20;72.10;;;;;;5055703;28;20028;-42
2021/08/02 01:24:35;;;;;;;15.70;11.13;;;24.20;72.20;;;;;;5055446;28;20029;-48
2021/08/02 01:27:44;;;;;;;14.00;11.25;;;24.20;72.40;;;;;;5055622;28;20309;-44
2021/08/02 01:30:21;;;;;;;16.23;11.43;;;24.20;72.30;;;;;;5051583;28;20037;-45
2021/08/02 01:32:49;;;;;;;15.85;10.85;;;24.10;72.40;;;;;;5055526;28;20052;-47
2021/08/02 01:35:15;;;;;;;12.30;10.20;;;24.10;72.60;;;;;;5055190;28;20029;-44
2021/08/02 01:37:42;;;;;;;18.67;11.38;;;24.10;72.50;;;;;;5055339;28;20033;-48
2021/08/02 01:40:09;;;;;;;14.73;11.00;;;24.10;72.70;;;;;;5055141;28;20045;-50
2021/08/02 01:42:35;;;;;;;13.45;10.70;;;24.10;72.70;;;;;;5055253;28;20455;-47
2021/08/02 01:45:01;;;;;;;16.30;10.98;;;24.00;72.80;;;;;;5055145;28;20041;-49
2021/08/02 01:48:01;;;;;;;23.27;12.77;;;24.00;72.90;;;;;;5055230;28;20033;-46
2021/08/02 01:51:00;;;;;;;16.85;11.60;;;23.90;72.90;;;;;;5054864;28;20076;-49
2021/08/02 01:53:56;;;;;;;15.52;11.77;;;24.00;73.10;;;;;;5055373;28;20036;-47
2021/08/02 01:56:26;;;;;;;14.20;11.20;;;23.90;73.20;;;;;;5055311;28;20317;-49
2021/08/02 01:59:08;;;;;;;15.95;11.50;;;23.90;73.40;;;;;;5055606;28;20087;-44
2021/08/02 02:01:41;;;;;;;16.88;12.25;;;23.80;73.40;;;;;;5056888;28;20037;-48
2021/08/02 02:04:07;;;;;;;15.88;12.13;;;23.80;73.60;;;;;;5057525;28;20509;-49
2021/08/02 02:06:38;;;;;;;18.80;11.50;;;23.80;73.80;;;;;;5058989;28;20107;-46
2021/08/02 02:09:10;;;;;;;16.35;12.02;;;23.70;73.80;;;;;;5059042;28;20436;-46
2021/08/02 02:11:42;;;;;;;16.60;12.45;;;23.70;74.00;;;;;;5058947;28;20160;-48
2021/08/02 02:14:10;;;;;;;16.25;11.25;;;23.70;74.10;;;;;;5058929;28;20033;-44
2021/08/02 02:16:40;;;;;;;15.45;11.65;;;23.70;74.20;;;;;;5058783;28;20036;-44
2021/08/02 02:19:08;;;;;;;19.55;13.23;;;23.70;74.30;;;;;;5058866;28;20115;-45
2021/08/02 02:21:35;;;;;;;21.35;13.90;;;23.70;74.50;;;;;;5058771;28;20036;-45
2021/08/02 02:24:01;;;;;;;19.63;13.38;;;23.60;74.70;;;;;;5058863;28;20090;-50
2021/08/02 02:26:29;;;;;;;16.77;12.95;;;23.60;74.90;;;;;;5058628;28;20119;-49
2021/08/02 02:28:56;;;;;;;18.13;12.40;;;23.60;75.10;;;;;;5058909;28;20021;-44
2021/08/02 02:31:24;;;;;;;18.92;13.48;;;23.50;75.20;;;;;;5058293;28;20072;-43
2021/08/02 02:33:51;;;;;;;16.05;13.07;;;23.50;75.40;;;;;;5058675;28;20031;-43
2021/08/02 02:36:17;;;;;;;19.80;13.00;;;23.50;75.50;;;;;;5058445;28;20040;-46
2021/08/02 02:38:44;;;;;;;17.17;13.13;;;23.50;75.60;;;;;;5058296;28;20045;-47
2021/08/02 02:41:10;;;;;;;17.52;12.30;;;23.50;75.80;;;;;;5058515;28;20040;-48
2021/08/02 02:43:37;;;;;;;23.23;13.50;;;23.50;75.80;;;;;;5058498;28;20029;-45
2021/08/02 02:46:03;;;;;;;21.25;14.30;;;23.50;75.90;;;;;;5058077;28;20033;-48
2021/08/02 02:48:29;;;;;;;21.50;13.90;;;23.50;76.10;;;;;;5058287;28;20044;-48
2021/08/02 02:50:57;;;;;;;19.80;13.00;;;23.50;76.10;;;;;;5058159;28;20029;-44
2021/08/02 02:53:23;;;;;;;18.10;13.20;;;23.50;76.20;;;;;;5058194;28;20041;-44
2021/08/02 02:55:50;;;;;;;18.83;13.73;;;23.60;76.20;;;;;;5057985;28;20094;-43
2021/08/02 02:58:15;;;;;;;20.90;14.13;;;23.60;76.30;;;;;;5058030;28;20032;-50
2021/08/02 03:00:43;;;;;;;23.83;13.90;;;23.60;76.30;;;;;;5057957;28;20425;-46
2021/08/02 03:03:13;;;;;;;18.55;14.18;;;23.60;76.30;;;;;;5058137;28;20033;-45
2021/08/02 03:05:39;;;;;;;22.90;14.07;;;23.60;76.30;;;;;;5058115;28;20079;-44
2021/08/02 03:08:06;;;;;;;20.67;14.63;;;23.60;76.30;;;;;;5058004;28;20037;-44
2021/08/02 03:10:33;;;;;;;22.70;13.30;;;23.70;76.50;;;;;;5058085;28;20029;-44
2021/08/02 03:12:59;;;;;;;22.23;14.50;;;23.70;76.40;;;;;;5057176;28;20052;-47
2021/08/02 03:15:25;;;;;;;21.25;14.30;;;23.70;76.50;;;;;;5057946;28;20364;-45
2021/08/02 03:17:51;;;;;;;23.10;14.48;;;23.70;76.60;;;;;;5057520;28;20044;-48
2021/08/02 03:20:18;;;;;;;19.13;13.00;;;23.70;76.60;;;;;;5057266;28;20039;-44
2021/08/02 03:22:50;;;;;;;18.13;13.73;;;23.70;76.50;;;;;;5057472;28;20033;-42
2021/08/02 03:25:33;;;;;;;19.00;13.43;;;23.70;76.50;;;;;;5057543;28;20352;-47
2021/08/02 03:28:17;;;;;;;23.77;14.57;;;23.70;76.40;;;;;;5057686;28;20043;-44
2021/08/02 03:30:45;;;;;;;19.60;14.73;;;23.70;76.40;;;;;;5057271;28;20108;-46
2021/08/02 03:33:15;;;;;;;23.63;15.05;;;23.80;76.40;;;;;;5057055;28;20029;-47
2021/08/02 03:35:47;;;;;;;27.08;14.18;;;23.70;76.40;;;;;;5057068;28;20033;-44
2021/08/02 03:38:15;;;;;;;24.85;14.25;;;23.70;76.50;;;;;;5056983;28;20068;-45
2021/08/02 03:40:43;;;;;;;19.65;14.57;;;23.70;76.50;;;;;;5057153;28;20033;-49
2021/08/02 03:43:09;;;;;;;26.25;15.60;;;23.70;76.60;;;;;;5057123;28;20122;-45
2021/08/02 03:45:35;;;;;;;22.17;15.30;;;23.70;76.70;;;;;;5056960;28;20112;-46
2021/08/02 03:48:02;;;;;;;26.58;13.95;;;23.70;76.70;;;;;;5057034;28;20044;-50
2021/08/02 03:50:30;;;;;;;20.42;15.25;;;23.70;76.70;;;;;;5056959;28;20033;-45
2021/08/02 03:52:55;;;;;;;28.00;16.23;;;23.70;76.90;;;;;;5057163;28;20029;-44
2021/08/02 03:55:24;;;;;;;27.10;15.30;;;23.70;76.90;;;;;;5056841;28;20064;-42
2021/08/02 03:57:50;;;;;;;23.83;14.32;;;23.70;77.00;;;;;;5056966;28;20321;-47
2021/08/02 04:00:21;;;;;;;25.13;15.40;;;23.80;77.00;;;;;;5056467;28;20037;-43
2021/08/02 04:02:46;;;;;;;22.50;14.73;;;23.80;77.00;;;;;;5056633;28;20033;-44
2021/08/02 04:05:12;;;;;;;29.88;15.35;;;23.80;77.10;;;;;;5056030;28;20116;-47
2021/08/02 04:07:40;;;;;;;22.80;13.88;;;23.80;77.30;;;;;;5056488;28;20039;-47
2021/08/02 04:10:06;;;;;;;22.38;15.13;;;23.90;77.20;;;;;;5056443;28;20116;-42
2021/08/02 04:12:32;;;;;;;18.70;14.00;;;23.90;77.30;;;;;;5056478;28;20361;-44
2021/08/02 04:14:58;;;;;;;22.73;15.98;;;23.90;77.20;;;;;;5056222;28;20028;-43
2021/08/02 04:17:23;;;;;;;20.83;15.38;;;24.00;77.30;;;;;;5055936;28;20108;-45
2021/08/02 04:19:49;;;;;;;23.70;15.35;;;24.00;77.40;;;;;;5055977;28;20036;-43
2021/08/02 04:22:14;;;;;;;21.70;17.77;;;24.10;77.30;;;;;;5056206;28;20029;-50
2021/08/02 04:24:40;;;;;;;23.40;15.82;;;24.10;77.40;;;;;;5056226;28;20036;-50
2021/08/02 04:27:06;;;;;;;24.20;16.60;;;24.10;77.30;;;;;;5054601;28;20471;-43
2021/08/02 04:29:32;;;;;;;21.42;14.65;;;24.20;77.50;;;;;;5055908;28;20116;-48
2021/08/02 04:31:57;;;;;;;25.88;16.33;;;24.20;77.40;;;;;;5055583;28;20033;-45
2021/08/02 04:34:23;;;;;;;23.65;15.63;;;24.30;77.50;;;;;;5055464;28;20032;-47
2021/08/02 04:36:49;;;;;;;22.58;15.70;;;24.30;77.50;;;;;;5056069;28;20021;-44
2021/08/02 04:39:14;;;;;;;21.55;16.17;;;24.30;77.60;;;;;;5055278;28;20064;-49
2021/08/02 04:41:40;;;;;;;24.15;15.65;;;24.40;77.60;;;;;;5055922;28;20029;-43
2021/08/02 04:44:05;;;;;;;23.10;15.10;;;24.40;77.60;;;;;;5055755;28;20025;-45
2021/08/02 04:46:31;;;;;;;26.75;15.40;;;24.40;77.60;;;;;;5055360;28;20408;-45
2021/08/02 04:48:57;;;;;;;23.13;16.50;;;24.50;77.80;;;;;;5056074;28;20040;-44
2021/08/02 04:51:23;;;;;;;20.45;14.38;;;24.60;77.80;;;;;;5055933;28;20460;-48
2021/08/02 04:53:48;;;;;;;27.73;16.48;;;24.60;77.70;;;;;;5055803;28;20116;-46
2021/08/02 04:56:14;;;;;;;28.83;16.95;;;24.70;78.40;;;;;;5055745;28;20029;-45
2021/08/02 04:58:39;;;;;;;22.88;15.15;;;24.70;77.70;;;;;;5056024;28;20048;-44
2021/08/02 05:01:05;;;;;;;21.88;15.13;;;24.80;77.60;;;;;;5055878;28;20343;-47
2021/08/02 05:03:31;;;;;;;22.90;15.50;;;24.80;77.60;;;;;;5055574;28;20143;-42
2021/08/02 05:05:57;;;;;;;19.95;15.38;;;24.90;77.60;;;;;;5055744;28;20406;-44
2021/08/02 05:08:22;;;;;;;22.73;16.35;;;25.00;77.60;;;;;;5055487;28;20130;-47
2021/08/02 05:10:48;;;;;;;18.88;14.80;;;25.00;77.50;;;;;;5055861;28;20063;-44
2021/08/02 05:13:14;;;;;;;22.35;14.77;;;25.10;77.40;;;;;;5055360;28;20131;-47
2021/08/02 05:15:40;;;;;;;21.25;15.38;;;25.20;77.40;;;;;;5055195;28;20033;-43
2021/08/02 05:18:06;;;;;;;18.90;14.18;;;25.30;77.30;;;;;;5055418;28;20083;-45
2021/08/02 05:20:32;;;;;;;25.20;16.35;;;25.30;77.30;;;;;;5055602;28;20310;-47
2021/08/02 05:22:57;;;;;;;19.38;14.45;;;25.40;77.20;;;;;;5055200;28;20116;-44
2021/08/02 05:25:23;;;;;;;23.13;15.40;;;25.40;77.20;;;;;;5055166;28;20033;-46
2021/08/02 05:27:51;;;;;;;18.17;14.70;;;25.50;77.10;;;;;;5055440;28;20060;-48
2021/08/02 05:30:17;;;;;;;18.08;15.40;;;25.60;77.10;;;;;;5054860;28;20060;-48
2021/08/02 05:32:43;;;;;;;21.15;15.05;;;25.70;77.00;;;;;;5055508;28;20087;-46
2021/08/02 05:35:10;;;;;;;17.95;13.52;;;25.70;77.10;;;;;;5055237;28;20037;-47
2021/08/02 05:37:35;;;;;;;16.88;13.88;;;25.80;77.10;;;;;;5058435;28;20120;-45
2021/08/02 05:40:01;;;;;;;19.15;13.75;;;25.90;77.10;;;;;;5058848;28;20488;-44
2021/08/02 05:42:27;;;;;;;18.42;13.43;;;26.00;77.10;;;;;;5059109;28;20029;-44
2021/08/02 05:44:52;;;;;;;18.38;13.85;;;26.00;77.00;;;;;;5058964;28;20029;-42
2021/08/02 05:47:18;;;;;;;20.05;13.82;;;26.10;76.70;;;;;;5058781;28;20139;-46
2021/08/02 05:49:43;;;;;;;18.15;12.60;;;26.20;76.30;;;;;;5058651;28;20028;-43
2021/08/02 05:52:09;;;;;;;22.60;13.45;;;26.30;76.10;;;;;;5058813;28;20044;-47
2021/08/02 05:54:35;;;;;;;15.18;12.48;;;26.30;76.00;;;;;;5058591;28;20104;-44
2021/08/02 05:57:01;;;;;;;20.20;12.02;;;26.40;75.90;;;;;;5058539;28;20040;-50
2021/08/02 05:59:27;;;;;;;20.13;12.07;;;26.50;75.80;;;;;;5058215;28;20085;-49
2021/08/02 06:01:53;;;;;;;18.75;13.25;;;26.60;75.60;;;;;;5059050;28;20059;-44
2021/08/02 06:04:18;;;;;;;18.13;12.98;;;26.70;75.10;;;;;;5058383;28;20044;-46
2021/08/02 06:06:44;;;;;;;16.98;11.90;;;26.80;74.50;;;;;;5058477;28;20083;-47
2021/08/02 06:09:11;;;;;;;18.83;12.13;;;26.90;74.30;;;;;;5058467;28;20021;-47
2021/08/02 06:11:37;;;;;;;15.25;12.30;;;27.00;74.00;;;;;;5058061;28;20032;-45
2021/08/02 06:14:03;;;;;;;14.48;11.73;;;27.10;73.50;;;;;;5058507;28;20421;-47
2021/08/02 06:16:29;;;;;;;14.23;11.25;;;27.30;73.30;;;;;;5058182;28;20033;-46
2021/08/02 06:18:54;;;;;;;17.50;11.80;;;27.40;73.00;;;;;;5058647;28;20468;-50
2021/08/02 06:21:20;;;;;;;17.85;11.85;;;27.50;72.80;;;;;;5058145;28;20033;-45
2021/08/02 06:23:46;;;;;;;14.50;11.98;;;27.70;72.60;;;;;;5058742;28;20425;-51
2021/08/02 06:26:11;;;;;;;16.08;12.40;;;27.80;72.50;;;;;;5057911;28;20032;-47
2021/08/02 06:28:37;;;;;;;18.60;10.40;;;27.90;71.90;;;;;;5058025;28;20028;-48
2021/08/02 06:31:03;;;;;;;12.80;10.48;;;28.00;71.60;;;;;;5058370;28;20029;-46
2021/08/02 06:33:29;;;;;;;23.27;13.55;;;28.10;71.10;;;;;;5058288;28;20079;-46
2021/08/02 06:35:55;;;;;;;19.60;11.80;;;28.10;70.80;;;;;;5058080;28;20314;-47
2021/08/02 06:38:20;;;;;;;21.08;11.35;;;28.20;70.40;;;;;;5057807;28;20119;-43
2021/08/02 06:40:46;;;;;;;15.55;11.80;;;28.20;69.90;;;;;;5057853;28;20068;-47
2021/08/02 06:43:13;;;;;;;13.52;11.75;;;28.30;69.70;;;;;;5058117;28;20091;-43
2021/08/02 06:45:41;;;;;;;13.52;10.80;;;28.40;69.30;;;;;;5058072;28;20033;-47
2021/08/02 06:48:06;;;;;;;17.55;11.48;;;28.50;68.90;;;;;;5056928;28;20059;-49
2021/08/02 06:50:32;;;;;;;22.38;11.75;;;28.50;68.90;;;;;;5058017;28;20317;-51
2021/08/02 06:52:58;;;;;;;16.20;11.60;;;28.60;68.70;;;;;;5058117;28;20397;-49
2021/08/02 06:55:23;;;;;;;16.95;12.05;;;28.70;68.60;;;;;;5057364;28;20055;-51
2021/08/02 06:57:49;;;;;;;16.17;11.75;;;28.70;68.50;;;;;;5057687;28;20029;-44
2021/08/02 07:00:15;;;;;;;16.30;12.55;;;28.80;68.30;;;;;;5057701;28;20033;-43
2021/08/02 07:02:41;;;;;;;15.30;12.07;;;28.80;68.20;;;;;;5057758;28;20033;-43
2021/08/02 07:05:07;;;;;;;18.98;12.38;;;28.90;68.20;;;;;;5057758;28;20431;-49
2021/08/02 07:07:33;;;;;;;15.75;12.02;;;28.90;68.40;;;;;;5057368;28;20092;-45
2021/08/02 07:09:59;;;;;;;22.73;12.20;;;28.90;68.60;;;;;;5057273;28;20116;-48
2021/08/02 07:12:24;;;;;;;14.35;11.70;;;28.90;68.50;;;;;;5057479;28;20025;-44
2021/08/02 07:14:51;;;;;;;19.58;13.10;;;28.90;68.50;;;;;;5057179;28;20044;-47
2021/08/02 07:17:16;;;;;;;14.40;11.55;;;28.90;68.80;;;;;;5057302;28;20278;-43
2021/08/02 07:19:42;;;;;;;16.00;11.77;;;29.00;68.60;;;;;;5056018;28;20040;-47
2021/08/02 07:22:08;;;;;;;15.27;11.98;;;29.00;68.00;;;;;;5057480;28;20028;-50
2021/08/02 07:24:33;;;;;;;17.35;12.38;;;29.10;68.30;;;;;;5056798;28;20329;-49
2021/08/02 07:26:59;;;;;;;16.88;12.25;;;29.10;68.10;;;;;;5056928;28;20115;-46
2021/08/02 07:29:25;;;;;;;15.20;11.20;;;29.20;67.50;;;;;;5056783;28;20437;-47
2021/08/02 07:31:50;;;;;;;18.23;12.35;;;29.20;67.30;;;;;;5056887;28;20470;-44
2021/08/02 07:34:16;;;;;;;15.90;10.90;;;29.20;67.50;;;;;;5056936;28;20021;-50
2021/08/02 07:36:41;;;;;;;18.90;12.40;;;29.30;67.20;;;;;;5056664;28;20033;-47
2021/08/02 07:39:07;;;;;;;15.32;11.30;;;29.40;66.70;;;;;;5056562;28;20056;-48
2021/08/02 07:41:33;;;;;;;16.25;11.32;;;29.40;66.30;;;;;;5056610;28;20029;-45
2021/08/02 07:44:00;;;;;;;20.00;12.10;;;29.50;66.50;;;;;;5056869;28;20032;-44
2021/08/02 07:46:26;;;;;;;18.42;11.13;;;29.60;66.70;;;;;;5056770;28;20052;-51
2021/08/02 07:48:52;;;;;;;23.15;12.70;;;29.70;65.70;;;;;;5056968;28;20033;-46
2021/08/02 07:51:20;;;;;;;13.93;10.65;;;29.80;65.60;;;;;;5056586;28;20108;-46
2021/08/02 07:53:47;;;;;;;17.10;10.82;;;29.90;64.60;;;;;;5056842;28;20029;-49
2021/08/02 07:56:12;;;;;;;22.10;11.27;;;30.00;64.60;;;;;;5056542;28;20380;-47
2021/08/02 07:58:38;;;;;;;14.48;10.20;;;30.00;64.70;;;;;;5056386;28;20115;-45
2021/08/02 08:01:04;;;;;;;13.23;10.23;;;30.10;63.90;;;;;;5056308;28;20043;-47
2021/08/02 08:03:29;;;;;;;11.48;9.18;;;30.20;63.40;;;;;;5056527;28;20036;-49
2021/08/02 08:05:55;;;;;;;14.77;9.25;;;30.30;62.80;;;;;;5056510;28;20362;-48
2021/08/02 08:08:21;;;;;;;18.08;9.60;;;30.40;62.90;;;;;;5056516;28;20064;-47
2021/08/02 08:10:48;;;;;;;17.27;9.95;;;30.50;62.00;;;;;;5056168;28;20021;-50
2021/08/02 08:13:14;;;;;;;16.52;9.65;;;30.60;61.60;;;;;;5056022;28;20420;-49
2021/08/02 08:15:39;;;;;;;14.05;9.52;;;30.70;61.40;;;;;;5056359;28;20087;-50
2021/08/02 08:18:05;;;;;;;19.52;9.57;;;30.70;60.70;;;;;;5056009;28;20033;-50
2021/08/02 08:20:31;;;;;;;12.27;9.77;;;30.80;60.50;;;;;;5055775;28;20419;-51
2021/08/02 08:22:57;;;;;;;13.32;9.80;;;30.90;60.60;;;;;;5056156;28;20227;-46
2021/08/02 08:25:24;;;;;;;15.20;10.93;;;31.00;60.80;;;;;;5055797;28;20041;-48
2021/08/02 08:27:50;;;;;;;25.90;12.68;;;31.10;60.30;;;;;;5055987;28;20026;-45
2021/08/02 08:30:17;;;;;;;19.60;9.55;;;31.10;60.00;;;;;;5055988;28;20081;-52
2021/08/02 08:32:43;;;;;;;11.88;9.50;;;31.20;58.70;;;;;;5055883;28;20021;-46
2021/08/02 08:35:10;;;;;;;18.40;9.23;;;31.30;58.30;;;;;;5055756;28;20321;-45
2021/08/02 08:37:37;;;;;;;11.50;8.98;;;31.30;57.80;;;;;;5055875;28;20032;-45
2021/08/02 08:40:04;;;;;;;22.00;9.65;;;31.30;57.90;;;;;;5055393;28;20083;-44
2021/08/02 08:42:30;;;;;;;10.63;8.77;;;31.30;57.70;;;;;;5055836;28;20033;-44
2021/08/02 08:44:56;;;;;;;14.18;8.90;;;31.20;57.70;;;;;;5055869;28;20112;-47
2021/08/02 08:47:21;;;;;;;14.02;9.15;;;31.30;57.90;;;;;;5055331;28;20112;-48
2021/08/02 08:49:47;;;;;;;13.70;8.45;;;31.20;57.90;;;;;;5055232;28;20033;-45
2021/08/02 08:52:14;;;;;;;14.48;9.45;;;31.20;58.30;;;;;;5055645;28;20025;-46
2021/08/02 08:54:42;;;;;;;11.63;8.90;;;31.30;58.40;;;;;;5055268;28;20035;-46
2021/08/02 08:57:12;;;;;;;15.90;9.63;;;31.30;58.70;;;;;;5055445;28;20057;-46
2021/08/02 08:59:49;;;;;;;13.35;9.65;;;31.30;58.10;;;;;;5055634;28;20084;-48
2021/08/02 09:02:16;;;;;;;13.80;9.45;;;31.40;57.80;;;;;;5055617;28;20064;-45
2021/08/02 09:04:52;;;;;;;16.67;9.25;;;31.40;57.70;;;;;;5055304;28;20314;-51
2021/08/02 09:07:17;;;;;;;11.73;9.32;;;31.40;58.00;;;;;;5055356;28;20061;-46
2021/08/02 09:09:43;;;;;;;14.95;10.30;;;31.40;58.00;;;;;;5055179;28;20345;-45
2021/08/02 09:12:14;;;;;;;16.23;9.88;;;31.50;58.00;;;;;;5054488;28;20084;-48
2021/08/02 09:14:57;;;;;;;17.92;10.27;;;31.50;58.10;;;;;;5055277;28;20312;-44
2021/08/02 09:17:37;;;;;;;12.10;9.50;;;31.50;58.00;;;;;;5054790;28;20043;-46
2021/08/02 09:20:23;;;;;;;16.33;9.90;;;31.50;57.90;;;;;;5054967;28;20044;-44
2021/08/02 09:22:50;;;;;;;13.85;10.85;;;31.60;57.70;;;;;;5055388;28;20061;-52
2021/08/02 09:25:21;;;;;;;19.80;15.20;;;31.60;57.40;;;;;;5054978;28;20429;-46
2021/08/02 09:27:48;;;;;;;18.90;10.15;;;31.60;56.90;;;;;;5055501;28;20478;-50
2021/08/02 09:30:26;;;;;;;16.38;10.60;;;31.70;56.50;;;;;;5055314;28;20036;-46
2021/08/02 09:33:07;;;;;;;12.73;9.80;;;31.80;56.00;;;;;;5055289;28;20057;-44
2021/08/02 09:35:41;;;;;;;20.42;11.23;;;31.80;56.20;;;;;;5055360;28;20079;-49
2021/08/02 09:38:09;;;;;;;14.93;11.63;;;31.80;56.40;;;;;;5055076;28;20033;-44
2021/08/02 09:40:55;;;;;;;19.90;11.85;;;31.80;55.80;;;;;;5055136;28;20036;-50
2021/08/02 09:43:26;;;;;;;15.18;10.60;;;31.80;55.40;;;;;;5055380;28;20035;-47
2021/08/02 09:46:00;;;;;;;16.05;11.05;;;31.80;55.10;;;;;;5055243;28;20033;-47
2021/08/02 09:48:41;;;;;;;13.73;9.63;;;31.80;55.10;;;;;;5055084;28;20021;-45
2021/08/02 09:51:18;;;;;;;14.40;9.85;;;31.80;54.80;;;;;;5055447;28;20421;-48
2021/08/02 09:53:46;;;;;;;22.02;16.83;;;31.80;54.40;;;;;;5055008;28;20031;-46
2021/08/02 09:56:14;;;;;;;23.92;13.90;;;31.80;54.50;;;;;;5054787;28;20072;-43
2021/08/02 09:58:41;;;;;;;16.75;10.65;;;31.80;54.30;;;;;;5055286;28;20036;-45
2021/08/02 10:01:10;;;;;;;14.95;10.00;;;31.80;54.50;;;;;;5051113;28;20037;-47
2021/08/02 10:03:38;;;;;;;17.63;11.90;;;31.90;54.40;;;;;;5054749;28;20025;-44
2021/08/02 10:06:03;;;;;;;14.70;11.38;;;31.90;53.90;;;;;;5053859;28;20044;-44
2021/08/02 10:08:29;;;;;;;18.08;15.02;;;31.80;53.90;;;;;;5054612;28;20033;-43
2021/08/02 10:10:56;;;;;;;20.52;10.70;;;31.80;53.90;;;;;;5054623;28;20037;-45
2021/08/02 10:13:27;;;;;;;19.20;10.70;;;31.70;54.00;;;;;;5054634;28;20025;-46
2021/08/02 10:15:56;;;;;;;11.38;10.18;;;31.70;54.30;;;;;;5054494;28;20112;-48
2021/08/02 10:18:23;;;;;;;13.67;9.93;;;31.70;54.50;;;;;;5054625;28;20413;-47
2021/08/02 10:20:49;;;;;;;12.77;11.43;;;31.70;54.90;;;;;;5054256;28;20566;-50
2021/08/02 10:23:24;;;;;;;22.33;17.90;;;31.70;55.10;;;;;;5056751;28;20025;-45
2021/08/02 10:25:49;;;;;;;14.93;10.88;;;31.70;55.10;;;;;;5057685;28;20689;-48
2021/08/02 10:28:17;;;;;;;13.63;10.88;;;31.70;55.20;;;;;;5057838;28;20029;-43
2021/08/02 10:30:46;;;;;;;16.50;10.35;;;31.70;54.80;;;;;;5058052;28;20025;-45
2021/08/02 10:33:12;;;;;;;19.05;10.70;;;31.70;54.50;;;;;;5057453;28;20356;-49
2021/08/02 10:35:41;;;;;;;16.90;11.68;;;31.70;54.50;;;;;;5057773;28;20060;-50
2021/08/02 10:38:17;;;;;;;18.85;14.60;;;31.60;54.70;;;;;;5057575;28;20029;-45
2021/08/02 10:40:54;;;;;;;14.70;11.20;;;31.60;54.80;;;;;;5058096;28;20407;-45
2021/08/02 10:43:32;;;;;;;16.98;11.27;;;31.60;55.10;;;;;;5057760;28;20025;-45
2021/08/02 10:45:59;;;;;;;19.00;11.68;;;31.60;55.00;;;;;;5057596;28;20049;-50
2021/08/02 10:48:27;;;;;;;20.95;13.18;;;31.70;55.30;;;;;;5057537;28;20487;-48
2021/08/02 10:50:53;;;;;;;16.50;11.90;;;31.70;55.50;;;;;;5057565;28;20044;-47
2021/08/02 10:53:19;;;;;;;16.70;11.52;;;31.80;55.40;;;;;;5057533;28;20393;-51
2021/08/02 10:55:50;;;;;;;15.38;12.23;;;31.90;55.70;;;;;;5057489;28;20041;-45
2021/08/02 10:58:39;;;;;;;16.30;11.30;;;32.00;55.60;;;;;;5057300;28;20029;-45
2021/08/02 11:01:10;;;;;;;17.05;12.20;;;32.00;55.40;;;;;;5057161;28;20120;-47
2021/08/02 11:03:40;;;;;;;20.50;11.50;;;32.10;55.60;;;;;;5057586;28;20067;-51
2021/08/02 11:06:10;;;;;;;20.20;14.27;;;32.00;54.80;;;;;;5057207;28;20112;-49
2021/08/02 11:08:51;;;;;;;21.60;10.98;;;32.00;54.60;;;;;;5057813;28;20090;-49
2021/08/02 11:11:30;;;;;;;15.80;9.57;;;32.10;53.80;;;;;;5057196;28;20040;-47
2021/08/02 11:14:20;;;;;;;12.55;9.25;;;32.10;53.40;;;;;;5057818;28;20116;-44
2021/08/02 11:16:47;;;;;;;18.63;9.05;;;32.00;53.30;;;;;;5057129;28;20167;-45
2021/08/02 11:19:23;;;;;;;21.63;15.00;;;31.90;53.20;;;;;;5057027;28;20033;-46
2021/08/02 11:22:10;;;;;;;20.98;10.98;;;31.80;53.10;;;;;;5057298;28;20286;-45
2021/08/02 11:24:38;;;;;;;19.70;10.88;;;31.80;53.20;;;;;;5056647;28;20028;-50
2021/08/02 11:27:08;;;;;;;14.25;9.60;;;31.70;54.00;;;;;;5056495;28;20029;-46
2021/08/02 11:29:36;;;;;;;13.90;10.30;;;31.60;54.80;;;;;;5056920;28;20029;-45
2021/08/02 11:32:03;;;;;;;17.42;10.43;;;31.50;55.00;;;;;;5056180;28;20446;-48
2021/08/02 11:34:29;;;;;;;21.25;11.55;;;31.40;56.40;;;;;;5056053;28;20028;-46
2021/08/02 11:37:08;;;;;;;17.40;10.85;;;31.30;58.10;;;;;;5057032;28;20029;-44
2021/08/02 11:39:36;;;;;;;15.63;10.35;;;31.10;59.30;;;;;;5056537;28;20406;-50
2021/08/02 11:42:12;;;;;;;21.45;11.57;;;30.90;58.80;;;;;;5056927;28;20294;-48
2021/08/02 11:44:52;;;;;;;17.70;11.75;;;30.70;59.60;;;;;;5056879;28;20320;-44
2021/08/02 11:47:21;;;;;;;;;;;30.60;60.90;;;;;;5057004;28;20029;-43
2021/08/02 11:49:47;;;;;;;19.60;11.20;;;30.30;61.50;;;;;;5056598;28;19909;-48
2021/08/02 11:52:16;;;;;;;14.88;10.30;;;30.00;62.50;;;;;;5056152;28;20326;-47
2021/08/02 11:54:44;;;;;;;14.85;10.60;;;29.80;62.20;;;;;;5056473;28;20033;-46
2021/08/02 11:57:17;;;;;;;11.55;9.00;;;29.60;62.60;;;;;;5056085;28;20033;-45
2021/08/02 11:59:53;;;;;;;20.23;11.00;;;29.40;62.60;;;;;;5056379;28;20039;-43
2021/08/02 12:02:36;;;;;;;22.52;11.35;;;29.30;62.80;;;;;;5056684;28;20041;-43
2021/08/02 12:05:05;;;;;;;19.02;9.38;;;29.20;62.60;;;;;;5056696;28;20328;-46
2021/08/02 12:07:33;;;;;;;21.37;8.30;;;29.00;60.40;;;;;;5056028;28;20427;-43
2021/08/02 12:10:31;;;;;;;15.63;7.70;;;29.00;57.90;;;;;;5056261;28;20025;-46
2021/08/02 12:13:10;;;;;;;12.77;7.28;;;29.00;56.30;;;;;;5055039;28;20079;-48
2021/08/02 12:15:36;;;;;;;15.25;7.15;;;29.20;55.60;;;;;;5056181;28;20032;-45
2021/08/02 12:18:02;;;;;;;13.77;7.07;;;29.30;55.40;;;;;;5056219;28;20045;-50
2021/08/02 12:20:38;;;;;;;14.20;7.07;;;29.50;55.30;;;;;;5055912;28;20033;-47
2021/08/02 12:23:08;;;;;;;10.32;5.75;;;29.70;54.30;;;;;;5055950;28;20083;-45
2021/08/02 12:25:43;;;;;;;9.18;6.03;;;29.90;53.80;;;;;;5055938;28;20024;-43
2021/08/02 12:28:09;;;;;;;6.82;5.70;;;30.10;53.50;;;;;;5055976;28;20044;-44
2021/08/02 12:30:38;;;;;;;7.72;5.57;;;30.30;53.50;;;;;;5056128;28;20325;-46
2021/08/02 12:33:05;;;;;;;8.82;6.22;;;30.50;53.60;;;;;;5056089;28;20029;-50
2021/08/02 12:35:31;;;;;;;8.77;5.90;;;30.70;53.40;;;;;;5055883;28;20052;-52
2021/08/02 12:38:03;;;;;;;9.93;6.43;;;31.00;53.40;;;;;;5055924;28;20040;-51
2021/08/02 12:40:29;;;;;;;10.15;6.50;;;31.30;52.70;;;;;;5055633;28;20445;-46